LFLV

Vichy-Charmeil Airport

Airport
ICAO code
LFLV
IATA Code
VHY
Summary
ICAO Region
EUR
ICAO Territory
Location

, Auvergne

Serving
Vichy
Elevation
817 ft
Coordinates
46° 10' 11" N , 3° 24' 13" E
Metar
Observation
LFLV 011030Z AUTO 35005KT 310V020 9999 OVC035 06/04 Q1021
Station
Vichy
Date/Time
2022-12-01 10:30:00
Wind direction
350°
Wind speed
05 kts
Lowest cloud amount
overcast
Temperature
6°C
Dew point
4°C
Humidity
86%
QNH
1021 hPa
Weather condition
n/a

Runways

Designator Length Width Surface Rops
1/19 2200 45 ASP No/No

Airport map

Aerial View

SKYbrary Partners:

Safety knowledge contributed by: